Time;durP1;ratioP1;P1;durP2;ratioP2;P2;SDS_P1;SDS_P2;PMS_P1;PMS_P2;Temp;Humidity;BMP_temperature;BMP_pressure;BME280_temperature;BME280_humidity;BME280_pressure;Samples;Min_cycle;Max_cycle;Signal;HPM_P1;HPM_P2
2023/01/02 00:01:12;;;;;;;106.93;43.13;;;2.40;99.90;;;;;;4210502;28;20306;-63
2023/01/02 00:03:13;;;;;;;142.63;44.70;;;2.40;99.90;;;;;;4211576;28;21094;-63
2023/01/02 00:05:14;;;;;;;106.17;40.07;;;2.50;99.90;;;;;;4210334;28;20349;-61
2023/01/02 00:07:15;;;;;;;87.03;39.30;;;2.40;99.90;;;;;;4211902;28;20256;-61
2023/01/02 00:09:17;;;;;;;108.33;41.30;;;2.50;99.90;;;;;;4210987;28;20342;-62
2023/01/02 00:11:18;;;;;;;128.53;41.53;;;2.50;99.90;;;;;;4211663;28;20277;-62
2023/01/02 00:13:19;;;;;;;283.23;51.43;;;2.50;99.90;;;;;;4210700;28;20280;-62
2023/01/02 00:15:21;;;;;;;79.90;38.87;;;2.40;99.90;;;;;;4211478;28;20284;-61
2023/01/02 00:17:22;;;;;;;86.40;40.47;;;2.40;99.90;;;;;;4210630;28;20318;-62
2023/01/02 00:19:23;;;;;;;76.57;40.03;;;2.40;99.90;;;;;;4211629;28;20302;-62
2023/01/02 00:21:24;;;;;;;82.17;40.37;;;2.50;99.90;;;;;;4210831;28;20260;-63
2023/01/02 00:23:25;;;;;;;73.80;37.47;;;2.50;99.90;;;;;;4211247;28;20306;-62
2023/01/02 00:25:26;;;;;;;78.70;39.07;;;2.60;99.90;;;;;;4209700;28;20700;-61
2023/01/02 00:27:28;;;;;;;89.70;38.20;;;2.60;99.90;;;;;;4210097;28;20405;-61
2023/01/02 00:29:29;;;;;;;78.17;38.03;;;2.60;99.90;;;;;;4211078;28;20288;-62
2023/01/02 00:31:30;;;;;;;100.90;39.03;;;2.60;99.90;;;;;;4210229;28;20330;-62
2023/01/02 00:33:31;;;;;;;103.83;40.70;;;2.60;99.90;;;;;;4211322;28;20280;-61
2023/01/02 00:35:32;;;;;;;94.07;37.73;;;2.60;99.90;;;;;;4210052;28;20302;-61
2023/01/02 00:37:35;;;;;;;95.87;38.90;;;2.60;99.90;;;;;;4209791;28;20277;-61
2023/01/02 00:39:36;;;;;;;81.07;36.57;;;2.60;99.90;;;;;;4209028;28;20322;-62
2023/01/02 00:41:37;;;;;;;93.93;35.90;;;2.60;99.90;;;;;;4211130;28;20277;-62
2023/01/02 00:43:38;;;;;;;117.60;40.00;;;2.60;99.90;;;;;;4209941;28;20377;-61
2023/01/02 00:45:40;;;;;;;123.83;37.47;;;2.60;99.90;;;;;;4210926;28;20277;-61
2023/01/02 00:47:41;;;;;;;113.33;38.90;;;2.60;99.90;;;;;;4205658;28;20318;-62
2023/01/02 00:49:42;;;;;;;87.30;37.63;;;2.60;99.90;;;;;;4210048;28;20280;-61
2023/01/02 00:51:43;;;;;;;182.33;38.77;;;2.60;99.90;;;;;;4210323;28;20261;-61
2023/01/02 00:53:44;;;;;;;117.43;36.13;;;2.50;99.90;;;;;;4210830;28;20285;-62
2023/01/02 00:55:46;;;;;;;100.80;36.17;;;2.50;99.90;;;;;;4210700;28;20666;-62
2023/01/02 00:57:47;;;;;;;137.87;39.20;;;2.50;99.90;;;;;;4209368;28;20322;-61
2023/01/02 00:59:48;;;;;;;110.07;39.40;;;2.50;99.90;;;;;;4209603;28;20342;-62
2023/01/02 01:01:49;;;;;;;97.13;37.67;;;2.50;99.90;;;;;;4209950;28;20671;-62
2023/01/02 01:03:50;;;;;;;134.33;38.07;;;2.50;99.90;;;;;;4209432;28;20260;-62
2023/01/02 01:05:51;;;;;;;144.77;39.87;;;2.50;99.90;;;;;;4207286;28;20269;-62
2023/01/02 01:07:56;;;;;;;91.30;39.77;;;2.40;99.90;;;;;;4194274;28;20817;-62
2023/01/02 01:09:57;;;;;;;122.80;40.00;;;2.40;99.90;;;;;;4192808;28;20604;-63
2023/01/02 01:11:58;;;;;;;148.50;42.20;;;2.30;99.90;;;;;;4195027;28;20679;-62
2023/01/02 01:13:59;;;;;;;118.87;39.87;;;2.20;99.90;;;;;;4193885;28;20374;-61
2023/01/02 01:16:05;;;;;;;92.10;37.37;;;2.10;99.90;;;;;;4208707;28;20326;-62
2023/01/02 01:18:06;;;;;;;131.50;37.77;;;2.10;99.90;;;;;;4209496;28;20675;-61
2023/01/02 01:20:08;;;;;;;105.63;36.77;;;2.10;99.90;;;;;;4211302;28;20366;-61
2023/01/02 01:22:09;;;;;;;131.77;40.63;;;2.10;99.90;;;;;;4210146;28;20273;-62
2023/01/02 01:24:11;;;;;;;92.03;38.33;;;2.20;99.90;;;;;;4210770;28;20319;-62
2023/01/02 01:26:12;;;;;;;146.50;43.60;;;2.20;99.90;;;;;;4210323;28;20296;-61
2023/01/02 01:28:13;;;;;;;237.03;47.87;;;2.20;99.90;;;;;;4209766;28;20289;-62
2023/01/02 01:30:14;;;;;;;282.03;47.17;;;2.10;99.90;;;;;;4210070;28;20260;-61
2023/01/02 01:32:15;;;;;;;163.10;41.80;;;2.00;99.90;;;;;;4210086;28;20330;-63
2023/01/02 01:34:17;;;;;;;148.30;41.93;;;2.00;99.90;;;;;;4210616;28;20273;-60
2023/01/02 01:36:20;;;;;;;131.80;38.70;;;2.00;99.90;;;;;;4208955;28;20269;-62
2023/01/02 01:38:21;;;;;;;170.57;42.77;;;2.10;99.90;;;;;;4210559;28;20272;-60
2023/01/02 01:40:22;;;;;;;124.97;42.13;;;2.10;99.90;;;;;;4209451;28;20326;-61
2023/01/02 01:42:23;;;;;;;142.00;45.50;;;2.20;99.90;;;;;;4211046;28;20665;-62
2023/01/02 01:44:45;;;;;;;195.53;48.07;;;2.20;99.90;;;;;;4209454;28;20601;-61
2023/01/02 01:46:46;;;;;;;197.20;47.63;;;2.10;99.90;;;;;;4195190;28;20311;-61
2023/01/02 01:48:53;;;;;;;198.73;49.30;;;2.10;99.90;;;;;;4209856;28;20326;-61
2023/01/02 01:50:54;;;;;;;187.47;51.87;;;2.00;99.90;;;;;;4213645;28;20329;-61
2023/01/02 01:53:15;;;;;;;137.00;44.37;;;2.00;99.90;;;;;;4213061;28;20265;-61
2023/01/02 01:55:27;;;;;;;176.03;47.27;;;1.90;99.90;;;;;;4214084;28;20284;-62
2023/01/02 01:58:01;;;;;;;118.07;43.60;;;2.00;99.90;;;;;;4213282;28;20268;-61
2023/01/02 02:00:04;;;;;;;144.33;44.40;;;2.10;99.90;;;;;;4212439;28;20355;-61
2023/01/02 02:02:05;;;;;;;96.40;41.53;;;2.10;99.90;;;;;;4212652;28;20306;-62
2023/01/02 02:04:08;;;;;;;106.80;42.70;;;2.20;99.90;;;;;;4213902;28;20310;-61
2023/01/02 02:06:09;;;;;;;109.67;42.23;;;2.20;99.90;;;;;;4212096;28;20647;-62
2023/01/02 02:08:26;;;;;;;101.47;41.63;;;2.30;99.90;;;;;;4212433;28;20341;-62
2023/01/02 02:10:27;;;;;;;182.30;46.03;;;2.40;99.90;;;;;;4212823;28;20743;-61
2023/01/02 02:12:29;;;;;;;181.27;47.50;;;2.30;99.90;;;;;;4213695;28;20327;-61
2023/01/02 02:14:31;;;;;;;102.70;41.63;;;2.30;99.90;;;;;;4212731;28;20249;-62
2023/01/02 02:16:43;;;;;;;97.67;41.53;;;2.30;99.90;;;;;;4213618;28;20272;-62
2023/01/02 02:19:08;;;;;;;106.00;40.10;;;2.30;99.90;;;;;;4212897;28;20338;-61
2023/01/02 02:22:03;;;;;;;104.20;41.23;;;2.30;99.90;;;;;;4213425;28;20314;-62
2023/01/02 02:24:27;;;;;;;126.97;42.30;;;2.40;99.90;;;;;;4177345;28;20262;-63
2023/01/02 02:26:31;;;;;;;120.63;41.80;;;2.40;99.90;;;;;;4150605;28;20282;-61
2023/01/02 02:29:00;;;;;;;133.70;41.93;;;2.40;99.90;;;;;;4180341;28;20797;-61
2023/01/02 02:31:12;;;;;;;216.60;41.07;;;2.40;99.90;;;;;;4196114;28;20269;-62
2023/01/02 02:33:26;;;;;;;90.77;35.80;;;2.30;99.90;;;;;;4212149;28;21324;-62
2023/01/02 02:35:48;;;;;;;165.70;40.00;;;2.30;99.90;;;;;;4212543;28;20264;-62
2023/01/02 02:38:03;;;;;;;224.97;40.17;;;2.30;99.90;;;;;;4213423;28;20336;-60
2023/01/02 02:40:19;;;;;;;161.07;37.60;;;2.20;99.90;;;;;;4212281;28;21617;-62
2023/01/02 02:42:35;;;;;;;269.90;41.50;;;2.20;99.90;;;;;;4213400;28;20272;-61
2023/01/02 02:45:05;;;;;;;209.00;40.17;;;2.10;99.90;;;;;;4211911;28;20385;-61
2023/01/02 02:47:23;;;;;;;241.95;38.53;;;2.00;99.90;;;;;;4208228;28;20272;-61
2023/01/02 02:49:43;;;;;;;174.13;39.73;;;2.00;99.90;;;;;;4211640;28;20067;-62
2023/01/02 02:51:51;;;;;;;196.90;40.50;;;2.00;99.90;;;;;;4212983;28;20345;-61
2023/01/02 02:54:08;;;;;;;155.43;40.07;;;1.90;99.90;;;;;;4195436;28;20281;-61
2023/01/02 02:56:11;;;;;;;127.93;37.30;;;2.00;99.90;;;;;;4196335;28;20659;-62
2023/01/02 02:58:15;;;;;;;262.33;43.20;;;2.00;99.90;;;;;;4205416;28;20685;-62
2023/01/02 03:00:18;;;;;;;314.13;48.33;;;2.00;99.90;;;;;;4212426;28;20276;-62
2023/01/02 03:02:20;;;;;;;210.17;39.60;;;1.90;99.90;;;;;;4211826;28;20771;-61
2023/01/02 03:04:22;;;;;;;206.10;43.87;;;1.90;99.90;;;;;;4212860;28;20293;-61
2023/01/02 03:06:35;;;;;;;219.37;41.83;;;1.90;99.90;;;;;;4211670;28;20277;-62
2023/01/02 03:09:13;;;;;;;185.97;42.17;;;1.90;99.90;;;;;;4212038;28;20321;-61
2023/01/02 03:11:14;;;;;;;193.50;39.37;;;1.90;99.90;;;;;;4210564;28;20281;-61
2023/01/02 03:13:23;;;;;;;196.13;38.87;;;1.90;99.90;;;;;;4212764;28;20302;-61
2023/01/02 03:15:53;;;;;;;202.80;37.83;;;1.90;99.90;;;;;;4211830;28;20330;-62
2023/01/02 03:18:00;;;;;;;90.50;34.53;;;1.80;99.90;;;;;;4194610;28;20805;-62
2023/01/02 03:20:11;;;;;;;277.90;43.53;;;1.90;99.90;;;;;;4211274;28;20663;-62
2023/01/02 03:22:18;;;;;;;135.87;34.97;;;1.80;99.90;;;;;;4211951;28;20848;-63
2023/01/02 03:24:21;;;;;;;305.53;41.50;;;1.90;99.90;;;;;;4211279;28;20273;-61
2023/01/02 03:26:27;;;;;;;226.63;37.47;;;1.90;99.90;;;;;;4212587;28;20337;-61
2023/01/02 03:28:30;;;;;;;320.93;46.03;;;1.80;99.90;;;;;;4211756;28;20314;-62
2023/01/02 03:30:33;;;;;;;146.17;37.10;;;1.80;99.90;;;;;;4212588;28;20256;-61
2023/01/02 03:32:53;;;;;;;213.27;35.93;;;1.80;99.90;;;;;;4211186;28;20730;-61
2023/01/02 03:34:55;;;;;;;229.63;37.70;;;1.80;99.90;;;;;;4212638;28;20261;-62
2023/01/02 03:37:17;;;;;;;176.07;35.60;;;1.70;99.90;;;;;;4210925;28;20318;-63
2023/01/02 03:39:22;;;;;;;153.93;36.33;;;1.70;99.90;;;;;;4212521;28;20272;-62
2023/01/02 03:41:28;;;;;;;151.53;34.13;;;1.70;99.90;;;;;;4211419;28;20305;-62
2023/01/02 03:43:31;;;;;;;202.73;37.80;;;1.70;99.90;;;;;;4212219;28;20362;-61
2023/01/02 03:45:39;;;;;;;166.20;41.43;;;1.60;99.90;;;;;;4210754;28;20314;-61
2023/01/02 03:47:55;;;;;;;153.80;34.77;;;1.60;99.90;;;;;;4212054;28;20257;-62
2023/01/02 03:50:00;;;;;;;209.87;35.80;;;1.60;99.90;;;;;;4209492;28;20300;-62
2023/01/02 03:52:01;;;;;;;181.47;41.50;;;1.60;99.90;;;;;;4211907;28;20605;-61
2023/01/02 03:54:04;;;;;;;235.30;39.00;;;1.60;99.90;;;;;;4211089;28;20817;-62
2023/01/02 03:56:14;;;;;;;153.80;37.43;;;1.50;99.90;;;;;;4211968;28;20679;-62
2023/01/02 03:58:39;;;;;;;137.80;35.13;;;1.50;99.90;;;;;;4211178;28;20273;-62
2023/01/02 04:00:48;;;;;;;200.10;40.97;;;1.50;99.90;;;;;;4206070;28;20052;-61
2023/01/02 04:03:07;;;;;;;203.00;40.87;;;1.50;99.90;;;;;;4211108;28;20265;-62
2023/01/02 04:05:30;;;;;;;157.97;38.73;;;1.50;99.90;;;;;;4211192;28;20393;-61
2023/01/02 04:07:54;;;;;;;220.67;41.30;;;1.50;99.90;;;;;;4210678;28;20330;-62
2023/01/02 04:09:56;;;;;;;291.80;46.47;;;1.50;99.90;;;;;;4209817;28;20296;-62
2023/01/02 04:12:09;;;;;;;160.27;36.13;;;1.50;99.90;;;;;;4210074;28;20833;-62
2023/01/02 04:14:21;;;;;;;141.20;33.50;;;1.40;99.90;;;;;;4211613;28;20276;-61
2023/01/02 04:16:28;;;;;;;165.07;37.90;;;1.40;99.90;;;;;;4210709;28;20659;-60
2023/01/02 04:18:35;;;;;;;157.37;36.33;;;1.40;99.90;;;;;;4211620;28;20273;-61
2023/01/02 04:20:48;;;;;;;277.13;45.87;;;1.40;99.90;;;;;;4210310;28;20353;-60
2023/01/02 04:23:08;;;;;;;149.00;34.57;;;1.40;99.90;;;;;;4211539;28;20338;-61
2023/01/02 04:25:12;;;;;;;161.67;37.20;;;1.40;99.90;;;;;;4210370;28;20272;-63
2023/01/02 04:27:21;;;;;;;134.90;34.63;;;1.40;99.90;;;;;;4211121;28;20272;-62
2023/01/02 04:29:22;;;;;;;163.37;36.93;;;1.30;99.90;;;;;;4210586;28;20296;-61
2023/01/02 04:31:48;;;;;;;324.43;47.90;;;1.30;99.90;;;;;;4211517;28;20748;-62
2023/01/02 04:33:59;;;;;;;340.20;55.57;;;1.40;99.90;;;;;;4210947;28;21070;-61
2023/01/02 04:36:10;;;;;;;332.50;55.37;;;1.30;99.90;;;;;;4209923;28;20326;-61
2023/01/02 04:38:12;;;;;;;271.13;42.75;;;1.40;99.90;;;;;;4210401;28;20756;-61
2023/01/02 04:40:23;;;;;;;281.97;45.27;;;1.30;99.90;;;;;;4211523;28;20085;-62
2023/01/02 04:42:24;;;;;;;167.97;35.37;;;1.40;99.90;;;;;;4209770;28;20276;-64
2023/01/02 04:44:25;;;;;;;236.60;40.37;;;1.40;99.90;;;;;;4211193;28;20310;-61
2023/01/02 04:46:28;;;;;;;179.63;42.10;;;1.40;99.90;;;;;;4210472;28;20686;-61
2023/01/02 04:48:29;;;;;;;243.27;46.73;;;1.40;99.90;;;;;;4211494;28;20334;-62
2023/01/02 04:50:30;;;;;;;171.43;37.93;;;1.40;99.90;;;;;;4209702;28;20361;-61
2023/01/02 04:52:31;;;;;;;183.57;39.67;;;1.40;99.90;;;;;;4211243;28;20280;-61
2023/01/02 04:54:32;;;;;;;192.77;43.17;;;1.50;99.90;;;;;;4210377;28;20678;-61
2023/01/02 04:56:33;;;;;;;216.97;43.07;;;1.50;99.90;;;;;;4210971;28;20281;-62
2023/01/02 04:58:34;;;;;;;185.27;41.10;;;1.50;99.90;;;;;;4210297;28;20683;-62
2023/01/02 05:00:36;;;;;;;241.13;45.77;;;1.50;99.90;;;;;;4211159;28;20281;-61
2023/01/02 05:02:38;;;;;;;157.87;39.70;;;1.50;99.90;;;;;;4192525;28;21270;-62
2023/01/02 05:04:39;;;;;;;250.67;45.53;;;1.60;99.90;;;;;;4211044;28;20277;-61
2023/01/02 05:06:40;;;;;;;142.30;36.63;;;1.50;99.90;;;;;;4205876;28;20280;-62
2023/01/02 05:08:41;;;;;;;184.70;40.17;;;1.50;99.90;;;;;;4209561;28;20330;-62
2023/01/02 05:10:42;;;;;;;119.00;33.93;;;1.60;99.90;;;;;;4209713;28;20272;-63
2023/01/02 05:12:43;;;;;;;145.67;35.63;;;1.60;99.90;;;;;;4210231;28;20261;-61
2023/01/02 05:14:45;;;;;;;91.63;33.77;;;1.70;99.90;;;;;;4210779;28;20260;-61
2023/01/02 05:16:46;;;;;;;151.67;39.10;;;1.70;99.90;;;;;;4209767;28;20310;-62
2023/01/02 05:18:47;;;;;;;100.27;35.47;;;1.80;99.90;;;;;;4210900;28;20333;-63
2023/01/02 05:20:48;;;;;;;92.23;31.50;;;1.70;99.90;;;;;;4209552;28;20751;-61
2023/01/02 05:25:09;;;;;;;120.90;32.70;;;1.70;99.90;;;;;;4213542;28;20325;-62
2023/01/02 05:27:10;;;;;;;74.00;31.03;;;1.80;99.90;;;;;;4214617;28;20302;-61
2023/01/02 05:29:11;;;;;;;67.73;30.90;;;1.80;99.90;;;;;;4213407;28;20296;-61
2023/01/02 05:31:12;;;;;;;83.47;31.23;;;1.80;99.90;;;;;;4214313;28;20318;-61
2023/01/02 05:33:14;;;;;;;99.60;34.20;;;1.80;99.90;;;;;;4213257;28;20437;-61
2023/01/02 05:35:15;;;;;;;63.03;29.73;;;1.80;99.90;;;;;;4214319;28;20334;-62
2023/01/02 05:37:16;;;;;;;98.83;33.43;;;1.80;99.90;;;;;;4212743;28;20676;-61
2023/01/02 05:39:17;;;;;;;94.20;33.07;;;1.90;99.90;;;;;;4213346;28;20322;-61
2023/01/02 05:41:19;;;;;;;107.17;30.90;;;1.90;99.90;;;;;;4213620;28;20337;-61
2023/01/02 05:43:20;;;;;;;73.47;28.93;;;1.90;99.90;;;;;;4213510;28;20281;-61
2023/01/02 05:45:22;;;;;;;63.07;28.63;;;1.90;99.90;;;;;;4213307;28;20314;-61
2023/01/02 05:47:23;;;;;;;83.23;28.33;;;2.00;99.90;;;;;;4213367;28;20330;-62
2023/01/02 05:49:24;;;;;;;89.07;31.10;;;1.90;99.90;;;;;;4213802;28;21963;-61
2023/01/02 05:51:25;;;;;;;75.53;30.27;;;1.80;99.90;;;;;;4212723;28;20284;-62
2023/01/02 05:53:27;;;;;;;82.30;29.90;;;1.80;99.90;;;;;;4214372;28;20314;-65
2023/01/02 05:55:28;;;;;;;88.90;30.23;;;1.80;99.90;;;;;;4212806;28;20774;-61
2023/01/02 05:57:29;;;;;;;76.87;29.13;;;1.80;99.90;;;;;;4214141;28;20338;-62
2023/01/02 05:59:30;;;;;;;64.27;27.83;;;1.80;99.90;;;;;;4213062;28;20859;-62
2023/01/02 06:01:31;;;;;;;102.10;31.47;;;1.80;99.90;;;;;;4213375;28;20357;-62
2023/01/02 06:03:33;;;;;;;79.47;30.77;;;1.80;99.90;;;;;;4212563;28;20675;-60
2023/01/02 06:05:34;;;;;;;58.23;28.67;;;1.90;99.90;;;;;;4213782;28;20277;-61
2023/01/02 06:07:35;;;;;;;77.40;31.27;;;1.90;99.90;;;;;;4212025;28;20677;-64
2023/01/02 06:09:36;;;;;;;93.30;29.80;;;2.00;99.90;;;;;;4213527;28;20648;-61
2023/01/02 06:11:38;;;;;;;106.50;32.87;;;2.00;99.90;;;;;;4212213;28;20257;-61
2023/01/02 06:13:39;;;;;;;157.87;38.13;;;2.00;99.90;;;;;;4213237;28;20268;-62
2023/01/02 06:15:40;;;;;;;200.60;40.27;;;1.90;99.90;;;;;;4212952;28;20264;-62
2023/01/02 06:17:41;;;;;;;126.43;34.93;;;1.80;99.90;;;;;;4212749;28;20276;-61
2023/01/02 06:19:42;;;;;;;101.97;31.70;;;1.80;99.90;;;;;;4213518;28;20265;-62
2023/01/02 06:21:43;;;;;;;118.23;33.27;;;1.80;99.90;;;;;;4212223;28;20272;-62
2023/01/02 06:23:45;;;;;;;178.30;34.23;;;1.80;99.90;;;;;;4213710;28;20758;-61
2023/01/02 06:25:46;;;;;;;196.63;33.47;;;1.80;99.90;;;;;;4212614;28;20314;-61
2023/01/02 06:27:47;;;;;;;116.67;31.40;;;1.70;99.90;;;;;;4213276;28;20302;-61
2023/01/02 06:29:48;;;;;;;194.70;33.93;;;1.70;99.90;;;;;;4212425;28;20701;-65
2023/01/02 06:31:49;;;;;;;257.67;38.63;;;1.60;99.90;;;;;;4213415;28;20342;-62
2023/01/02 06:33:58;;;;;;;173.77;33.07;;;1.60;99.90;;;;;;4212460;28;20672;-62
2023/01/02 06:36:08;;;;;;;120.50;28.77;;;1.60;99.90;;;;;;4212930;28;20639;-62
2023/01/02 06:38:09;;;;;;;148.38;29.58;;;1.50;99.90;;;;;;4212081;28;20260;-61
2023/01/02 06:40:11;;;;;;;418.47;41.93;;;1.50;99.90;;;;;;4213567;28;20209;-63
2023/01/02 06:42:12;;;;;;;67.73;25.67;;;1.50;99.90;;;;;;4211891;28;20253;-63
2023/01/02 06:44:14;;;;;;;106.07;28.47;;;1.40;99.90;;;;;;4213164;28;20659;-62
2023/01/02 06:46:17;;;;;;;147.43;29.80;;;1.40;99.90;;;;;;4212283;28;20257;-61
2023/01/02 06:48:18;;;;;;;192.27;32.00;;;1.50;99.90;;;;;;4212501;28;20326;-62
2023/01/02 06:50:19;;;;;;;189.63;33.13;;;1.50;99.90;;;;;;4196018;28;20350;-63
2023/01/02 06:52:20;;;;;;;315.00;40.03;;;1.50;99.90;;;;;;4211041;28;20624;-61
2023/01/02 06:54:22;;;;;;;190.33;35.50;;;1.50;99.90;;;;;;4212756;28;20273;-63
2023/01/02 06:56:23;;;;;;;132.10;29.13;;;1.40;99.90;;;;;;4212089;28;20269;-65
2023/01/02 06:58:27;;;;;;;165.37;31.77;;;1.40;99.90;;;;;;4212697;28;20310;-61
2023/01/02 07:00:29;;;;;;;230.80;33.63;;;1.40;99.90;;;;;;4212204;28;20860;-62
2023/01/02 07:02:31;;;;;;;244.73;33.50;;;1.40;99.90;;;;;;4212859;28;20269;-62
2023/01/02 07:04:32;;;;;;;315.67;36.73;;;1.40;99.90;;;;;;4211741;28;20280;-61
2023/01/02 07:06:33;;;;;;;240.83;33.40;;;1.40;99.90;;;;;;4212909;28;20273;-63
2023/01/02 07:08:34;;;;;;;90.80;28.10;;;1.40;99.90;;;;;;4211412;28;20269;-62
2023/01/02 07:10:36;;;;;;;185.23;32.93;;;1.40;99.90;;;;;;4213210;28;20833;-61
2023/01/02 07:12:37;;;;;;;259.40;38.10;;;1.40;99.90;;;;;;4210684;28;20326;-62
2023/01/02 07:14:38;;;;;;;166.67;30.50;;;1.40;99.90;;;;;;4212873;28;20292;-63
2023/01/02 07:16:39;;;;;;;138.17;28.50;;;1.30;99.90;;;;;;4211716;28;20298;-62
2023/01/02 07:18:41;;;;;;;185.37;29.37;;;1.40;99.90;;;;;;4212312;28;20667;-61
2023/01/02 07:20:42;;;;;;;305.53;41.30;;;1.30;99.90;;;;;;4211937;28;20353;-61
2023/01/02 07:22:52;;;;;;;174.70;29.57;;;1.30;99.90;;;;;;4211191;28;20326;-61
2023/01/02 07:24:53;;;;;;;297.90;32.85;;;1.30;99.90;;;;;;4211974;28;20749;-61
2023/01/02 07:26:54;;;;;;;334.40;36.13;;;1.20;99.90;;;;;;4211263;28;20077;-62
2023/01/02 07:28:55;;;;;;;217.23;30.83;;;1.20;99.90;;;;;;4212609;28;20322;-62
2023/01/02 07:31:02;;;;;;;211.13;28.63;;;1.20;99.90;;;;;;4211163;28;20313;-62
2023/01/02 07:33:03;;;;;;;155.10;25.53;;;1.10;99.90;;;;;;4212220;28;20268;-62
2023/01/02 07:35:05;;;;;;;148.13;25.90;;;1.10;99.90;;;;;;4211100;28;20330;-59
2023/01/02 07:37:06;;;;;;;209.47;28.90;;;1.10;99.90;;;;;;4202608;28;20285;-61
2023/01/02 07:39:07;;;;;;;115.93;24.13;;;1.20;99.90;;;;;;4210869;28;20276;-60
2023/01/02 07:41:16;;;;;;;301.17;31.57;;;1.10;99.90;;;;;;4212361;28;20330;-61
2023/01/02 07:43:17;;;;;;;201.80;27.20;;;1.10;99.90;;;;;;4211082;28;20284;-63
2023/01/02 07:45:18;;;;;;;205.53;29.27;;;1.10;99.90;;;;;;4212253;28;20277;-61
2023/01/02 07:47:19;;;;;;;213.00;27.07;;;1.20;99.90;;;;;;4210833;28;20337;-61
2023/01/02 07:49:21;;;;;;;161.77;28.60;;;1.20;99.90;;;;;;4212117;28;20273;-63
2023/01/02 07:51:22;;;;;;;124.47;25.87;;;1.20;99.90;;;;;;4210685;28;20333;-61
2023/01/02 07:53:23;;;;;;;355.50;39.10;;;1.20;99.90;;;;;;4211973;28;20273;-61
2023/01/02 07:55:24;;;;;;;161.57;26.17;;;1.30;99.90;;;;;;4211237;28;20683;-63
2023/01/02 07:57:30;;;;;;;346.67;35.83;;;1.30;99.90;;;;;;4211889;28;20253;-62
2023/01/02 07:59:31;;;;;;;181.60;27.57;;;1.30;99.90;;;;;;4211769;28;20276;-62
2023/01/02 08:01:32;;;;;;;223.63;28.27;;;1.30;99.90;;;;;;4211591;28;20277;-62
2023/01/02 08:03:33;;;;;;;177.60;30.03;;;1.40;99.90;;;;;;4211509;28;20747;-61
2023/01/02 08:05:34;;;;;;;219.93;32.47;;;1.40;99.90;;;;;;4210862;28;20294;-61
2023/01/02 08:07:36;;;;;;;280.23;34.00;;;1.40;99.90;;;;;;4210660;28;20261;-62
2023/01/02 08:09:37;;;;;;;182.90;27.17;;;1.50;99.90;;;;;;4210651;28;20307;-61
2023/01/02 08:11:38;;;;;;;257.40;39.37;;;1.50;99.90;;;;;;4211898;28;20276;-61
2023/01/02 08:13:39;;;;;;;159.17;28.90;;;1.60;99.90;;;;;;4208518;28;20280;-64
2023/01/02 08:15:40;;;;;;;147.73;26.30;;;1.60;99.90;;;;;;4210209;28;20342;-61
2023/01/02 08:17:41;;;;;;;152.73;28.93;;;1.60;99.90;;;;;;4209948;28;20333;-62
2023/01/02 08:19:43;;;;;;;124.33;25.17;;;1.60;99.90;;;;;;4210395;28;20367;-61
2023/01/02 08:21:44;;;;;;;92.60;22.17;;;1.60;99.90;;;;;;4210059;28;20593;-60
2023/01/02 08:23:45;;;;;;;256.07;29.80;;;1.60;99.90;;;;;;4210852;28;20329;-62
2023/01/02 08:25:46;;;;;;;84.43;23.00;;;1.60;99.90;;;;;;4210477;28;20261;-61
2023/01/02 08:27:47;;;;;;;151.10;28.80;;;1.60;99.90;;;;;;4210100;28;20265;-61
2023/01/02 08:29:48;;;;;;;115.90;22.27;;;1.70;99.90;;;;;;4210065;28;20322;-62
2023/01/02 08:31:49;;;;;;;156.23;27.43;;;1.60;99.90;;;;;;4210890;28;20269;-63
2023/01/02 08:33:51;;;;;;;160.50;26.73;;;1.70;99.90;;;;;;4210789;28;20330;-62
2023/01/02 08:35:52;;;;;;;82.90;22.23;;;1.70;99.90;;;;;;4209857;28;20272;-61
2023/01/02 08:37:53;;;;;;;126.67;24.20;;;1.60;99.90;;;;;;4210905;28;20840;-63
2023/01/02 08:39:54;;;;;;;95.00;23.30;;;1.60;99.90;;;;;;4209822;28;20326;-62
2023/01/02 08:41:57;;;;;;;122.10;24.87;;;1.70;99.90;;;;;;4211379;28;20337;-62
2023/01/02 08:43:59;;;;;;;110.00;25.67;;;1.70;99.90;;;;;;4210000;28;20294;-62
2023/01/02 08:46:07;;;;;;;168.73;26.47;;;1.70;99.90;;;;;;4211451;28;20657;-62
2023/01/02 08:48:08;;;;;;;200.07;32.33;;;1.70;99.90;;;;;;4208549;28;20353;-63
2023/01/02 08:50:09;;;;;;;68.57;25.70;;;1.80;99.90;;;;;;4211099;28;20337;-63
2023/01/02 08:52:10;;;;;;;170.87;27.47;;;1.80;99.90;;;;;;4210047;28;20276;-61
2023/01/02 08:54:11;;;;;;;102.67;24.37;;;1.90;99.90;;;;;;4210832;28;20253;-61
2023/01/02 08:56:19;;;;;;;110.07;27.17;;;1.90;99.90;;;;;;4209660;28;20254;-64
2023/01/02 08:58:20;;;;;;;153.57;29.00;;;2.00;99.90;;;;;;4210057;28;20276;-59
2023/01/02 09:00:22;;;;;;;260.53;29.87;;;2.10;99.90;;;;;;4210461;28;20369;-60
2023/01/02 09:02:23;;;;;;;115.50;26.00;;;2.10;99.90;;;;;;4210720;28;20744;-60
2023/01/02 09:04:24;;;;;;;123.47;26.90;;;2.10;99.90;;;;;;4210269;28;20261;-61
2023/01/02 09:06:27;;;;;;;121.23;27.33;;;2.10;99.90;;;;;;4209171;28;20326;-62
2023/01/02 09:08:28;;;;;;;180.67;32.43;;;2.10;99.90;;;;;;4211065;28;20333;-61
2023/01/02 09:10:29;;;;;;;71.13;24.00;;;2.20;99.90;;;;;;4209691;28;20350;-61
2023/01/02 09:12:30;;;;;;;128.87;26.37;;;2.30;99.90;;;;;;4210718;28;20280;-62
2023/01/02 09:14:31;;;;;;;120.57;27.27;;;2.30;99.90;;;;;;4209352;28;20288;-63
2023/01/02 09:16:33;;;;;;;125.27;28.43;;;2.40;99.90;;;;;;4210114;28;20277;-61
2023/01/02 09:18:34;;;;;;;217.27;30.10;;;2.50;99.90;;;;;;4206364;28;20322;-63
2023/01/02 09:20:39;;;;;;;76.97;25.47;;;2.50;99.90;;;;;;4210847;28;20405;-62
2023/01/02 09:22:40;;;;;;;130.70;26.63;;;2.50;99.90;;;;;;4209741;28;20268;-60
2023/01/02 09:24:41;;;;;;;96.30;25.27;;;2.50;99.90;;;;;;4211027;28;20386;-61
2023/01/02 09:26:43;;;;;;;64.50;25.53;;;2.50;99.90;;;;;;4209739;28;20822;-61
2023/01/02 09:28:44;;;;;;;64.30;26.40;;;2.60;99.90;;;;;;4209866;28;20745;-61
2023/01/02 09:30:45;;;;;;;64.33;26.37;;;2.70;99.90;;;;;;4209834;28;20714;-61
2023/01/02 09:32:48;;;;;;;106.27;27.87;;;2.90;99.90;;;;;;4210223;28;20751;-61
2023/01/02 09:34:49;;;;;;;126.67;29.30;;;2.90;99.90;;;;;;4210412;28;20659;-62
2023/01/02 09:36:50;;;;;;;90.00;24.23;;;2.90;99.90;;;;;;4209776;28;20670;-61
2023/01/02 09:38:59;;;;;;;98.03;26.50;;;3.00;99.90;;;;;;4210336;28;20698;-63
2023/01/02 09:41:12;;;;;;;103.57;24.57;;;3.00;99.90;;;;;;4210118;28;20763;-63
2023/01/02 09:43:17;;;;;;;72.77;23.50;;;3.00;99.90;;;;;;4210371;28;20269;-62
2023/01/02 09:45:18;;;;;;;60.73;23.80;;;3.10;99.90;;;;;;4208931;28;20276;-62
2023/01/02 09:47:25;;;;;;;93.47;24.50;;;3.20;99.90;;;;;;4210297;28;20678;-62
2023/01/02 09:49:31;;;;;;;82.30;23.67;;;3.20;99.90;;;;;;4209375;28;20813;-62
2023/01/02 09:51:34;;;;;;;50.73;22.80;;;3.10;99.90;;;;;;4210312;28;20361;-63
2023/01/02 09:53:35;;;;;;;58.50;21.40;;;3.20;99.90;;;;;;4209512;28;20330;-62
2023/01/02 09:55:48;;;;;;;52.80;22.93;;;3.20;99.90;;;;;;4210597;28;20311;-63
2023/01/02 09:57:55;;;;;;;74.27;23.03;;;3.30;99.90;;;;;;4209328;28;20269;-65
2023/01/02 10:00:04;;;;;;;44.80;22.33;;;3.40;99.90;;;;;;4210398;28;20322;-63
2023/01/02 10:02:05;;;;;;;48.33;23.87;;;3.40;99.90;;;;;;4197348;28;20265;-62
2023/01/02 10:04:15;;;;;;;56.03;26.23;;;3.50;99.90;;;;;;4210186;28;20276;-63
2023/01/02 10:06:23;;;;;;;73.90;23.95;;;3.60;99.90;;;;;;4209186;28;20285;-63
2023/01/02 10:08:35;;;;;;;59.47;23.90;;;3.70;99.90;;;;;;4209875;28;20042;-64
2023/01/02 10:10:42;;;;;;;49.70;21.80;;;3.70;99.90;;;;;;4209776;28;20296;-62
2023/01/02 10:12:56;;;;;;;39.23;22.07;;;3.70;99.90;;;;;;4211839;28;20272;-64
2023/01/02 10:15:12;;;;;;;43.60;20.77;;;3.80;99.90;;;;;;4212087;28;20284;-62
2023/01/02 10:17:16;;;;;;;72.73;21.27;;;3.80;99.90;;;;;;4213459;28;20284;-61
2023/01/02 10:19:47;;;;;;;71.50;22.13;;;3.70;99.90;;;;;;4212456;28;20334;-62
2023/01/02 10:21:51;;;;;;;40.57;20.10;;;3.80;99.90;;;;;;4212720;28;20288;-62
2023/01/02 10:24:00;;;;;;;50.07;20.83;;;3.80;99.90;;;;;;4212483;28;20753;-63
2023/01/02 10:26:14;;;;;;;97.20;20.93;;;3.90;99.90;;;;;;4212775;28;20290;-65
2023/01/02 10:28:41;;;;;;;53.50;21.40;;;3.90;99.90;;;;;;4212279;28;20753;-62
2023/01/02 10:30:49;;;;;;;81.13;24.40;;;3.90;99.90;;;;;;4202329;28;20369;-67
2023/01/02 10:33:09;;;;;;;90.60;23.30;;;3.80;99.90;;;;;;4211720;28;20272;-62
2023/01/02 10:35:21;;;;;;;121.88;32.05;;;3.80;99.90;;;;;;4212816;28;20659;-61
2023/01/02 10:37:26;;;;;;;68.57;22.53;;;3.70;99.90;;;;;;4203787;28;20067;-61
2023/01/02 10:39:33;;;;;;;124.70;20.70;;;3.70;99.90;;;;;;4211832;28;20269;-62